Impacts TAF Board INFO
FOR SITUATIONAL AWARENESS. NOT TO BE USED FOR FLIGHT PLANNING PURPOSES.
IDs:

KDCA - Washington/National, VA, US

Issued at 2323 UTC 20 Feb 2017
Updated at 0515 UTC 21 Feb 2017
Potential Impact None Slight Moderate High
Time0452Z 21/06Z 21/07Z 21/08Z 21/09Z 21/10Z 21/11Z 21/12Z 21/13Z 21/14Z 21/15Z 21/16Z 21/17Z 21/18Z
Type OBS PRVL PRVL PRVL PRVL PRVL PRVL PRVL PRVL PRVL PRVL PRVL PRVL PRVL
VIS 10 >6 >6 >6 >6 >6 >6 >6 >6 >6 >6 >6 >6 >6
CIG -- -- -- -- -- -- -- -- -- -- 200 200 200 200
Cover SCT SCT SCT SCT SCT SCT SCT SCT SCT SCT BKN BKN BKN BKN
FltCat VFR VFR VFR VFR VFR VFR VFR VFR VFR VFR VFR VFR VFR VFR
WX -- -- -- -- -- -- -- -- -- -- -- -- -- --
WDir VRB 30 30 30 30 30 30 30 30 30 150 150 150 150
WSpd 0 5 5 5 5 5 5 5 5 5 6 6 6 6
WGst -- -- -- -- -- -- -- -- -- -- -- -- -- --

Raw TAF
KDCA 202323Z 2100/2124 03005KT P6SM SCT250
  FM211500 15006KT P6SM SCT050 BKN200


Raw METAR
KDCA 210452Z 00000KT 10SM SCT250 09/M02 A3032 RMK AO2 SLP266 T00941017 402000061
KDCA 210352Z 04007KT 10SM SCT250 10/M01 A3030 RMK AO2 SLP261 T01001011
KDCA 210252Z 03006KT 10SM SCT250 10/M01 A3029 RMK AO2 SLP257 T01001011 53014

METAR Board
Radar Display
Forecast Discussion

FOR SITUATIONAL AWARENESS. NOT TO BE USED FOR FLIGHT PLANNING PURPOSES.

Page loaded:  05:15 UTC  |   09:15 PM Pacific  |   10:15 PM Mountain  |   11:15 PM Central  |   12:15 AM Eastern

 

ADVISORIES

FORECASTS

FORECASTS

OBSERVATIONS

USER TOOLS

ABOUT US